EBCI

Brussels South Charleroi Airport

Brussels, Belgium
TAF EBCI 182300Z 1900/2006 18014KT 9999 BKN030 BECMG 1900/1902 BKN012 TEMPO 1902/1908 BKN006 BECMG 1910/1912 BKN020 PROB30 TEMPO 1921/2006 4000 SHRA SCT006 BKN012CB
Issued Valid From Valid To
Dec-18 @ 23:00 UTC
(an hour ago)
Dec-19 @ 00:00 UTC
(7 minutes ago)
Dec-20 @ 06:00 UTC
(-1 days ago)
Dec-19 @ 00:00 to Dec-20 @ 06:00
TAF EBCI 182300Z 1900/2006 18014KT 9999 BKN030
Wind Visibility Clouds
180° at 14 knots 10,000+ meters
  • Broken at 3,000' AGL
Becoming Dec-19 @ 00:00 to Dec-19 @ 10:00
BECMG 1900/1902 BKN012
Wind Visibility Clouds
180° at 14 knots 10,000+ meters
  • Broken at 1,200' AGL
Temporary Dec-19 @ 02:00 to Dec-19 @ 08:00
TEMPO 1902/1908 BKN006
Clouds
  • Broken at 600' AGL
Becoming Dec-19 @ 10:00 to Dec-20 @ 06:00
BECMG 1910/1912 BKN020
Wind Visibility Clouds
180° at 14 knots 10,000+ meters
  • Broken at 2,000' AGL
Temporary  (Probability 30%) Dec-19 @ 21:00 to Dec-20 @ 06:00
PROB30 TEMPO 1921/2006 4000 SHRA SCT006 BKN012CB
Visibility Clouds Conditions
4,007 meters
  • Scattered at 600' AGL
  • Broken at 1,200' AGL
  • Rain
TAF EBCI 182300Z 1900/2006 18014KT 9999 BKN030 BECMG 1900/1902 BKN012 TEMPO 1902/1908 BKN006 BECMG 1910/1912 BKN020 PROB30 TEMPO 1921/2006 4000 SHRA SCT006 BKN012CB
Issued Dec-18 @ 23:00 UTC
(an hour ago)
Valid From Dec-19 @ 00:00 UTC
(7 minutes ago)
Valid To Dec-20 @ 06:00 UTC
(-1 days ago)
Dec-19 @ 00:00 - Dec-20 @ 06:00
Wind Visibility
180° at 14 knots 10,000+ meters
Clouds
  • Broken at 3,000' AGL
Becoming Dec-19 @ 00:00 - Dec-19 @ 10:00
Wind Visibility
180° at 14 knots 10,000+ meters
Clouds
  • Broken at 1,200' AGL
Temporary Dec-19 @ 02:00 - Dec-19 @ 08:00
Clouds
  • Broken at 600' AGL
Becoming Dec-19 @ 10:00 - Dec-20 @ 06:00
Wind Visibility
180° at 14 knots 10,000+ meters
Clouds
  • Broken at 2,000' AGL
Probability 30% Temporary Dec-19 @ 21:00 - Dec-20 @ 06:00
Clouds
  • Scattered at 600' AGL
  • Broken at 1,200' AGL
Conditions
  • Rain